sensor_id;sensor_type;location;lat;lon;timestamp;P1;durP1;ratioP1;P2;durP2;ratioP2
64197;SDS011;50512;53.666;9.700;2023-06-22T00:01:08;10.52;;;5.75;;
64197;SDS011;50512;53.666;9.700;2023-06-22T00:03:34;9.05;;;6.30;;
64197;SDS011;50512;53.666;9.700;2023-06-22T00:06:01;8.65;;;5.90;;
64197;SDS011;50512;53.666;9.700;2023-06-22T00:08:27;12.27;;;5.72;;
64197;SDS011;50512;53.666;9.700;2023-06-22T00:10:53;9.52;;;5.75;;
64197;SDS011;50512;53.666;9.700;2023-06-22T00:13:20;11.50;;;5.78;;
64197;SDS011;50512;53.666;9.700;2023-06-22T00:15:48;11.18;;;5.80;;
64197;SDS011;50512;53.666;9.700;2023-06-22T00:18:14;7.57;;;5.53;;
64197;SDS011;50512;53.666;9.700;2023-06-22T00:20:41;10.30;;;5.50;;
64197;SDS011;50512;53.666;9.700;2023-06-22T00:23:08;9.68;;;6.28;;
64197;SDS011;50512;53.666;9.700;2023-06-22T00:25:34;8.23;;;5.50;;
64197;SDS011;50512;53.666;9.700;2023-06-22T00:28:01;7.50;;;5.35;;
64197;SDS011;50512;53.666;9.700;2023-06-22T00:30:28;9.60;;;5.97;;
64197;SDS011;50512;53.666;9.700;2023-06-22T00:32:57;8.05;;;5.22;;
64197;SDS011;50512;53.666;9.700;2023-06-22T00:35:25;11.35;;;5.88;;
64197;SDS011;50512;53.666;9.700;2023-06-22T00:37:53;9.60;;;6.15;;
64197;SDS011;50512;53.666;9.700;2023-06-22T00:40:25;9.40;;;5.57;;
64197;SDS011;50512;53.666;9.700;2023-06-22T00:42:52;9.25;;;5.82;;
64197;SDS011;50512;53.666;9.700;2023-06-22T00:45:18;7.78;;;5.40;;
64197;SDS011;50512;53.666;9.700;2023-06-22T00:47:44;10.10;;;6.18;;
64197;SDS011;50512;53.666;9.700;2023-06-22T00:50:13;9.73;;;6.00;;
64197;SDS011;50512;53.666;9.700;2023-06-22T00:52:46;9.48;;;5.90;;
64197;SDS011;50512;53.666;9.700;2023-06-22T00:55:14;8.50;;;5.78;;
64197;SDS011;50512;53.666;9.700;2023-06-22T00:57:43;8.88;;;5.63;;
64197;SDS011;50512;53.666;9.700;2023-06-22T01:00:10;9.93;;;6.25;;
64197;SDS011;50512;53.666;9.700;2023-06-22T01:02:43;10.50;;;6.47;;
64197;SDS011;50512;53.666;9.700;2023-06-22T01:05:13;11.52;;;7.10;;
64197;SDS011;50512;53.666;9.700;2023-06-22T01:07:40;10.88;;;7.40;;
64197;SDS011;50512;53.666;9.700;2023-06-22T01:10:14;10.93;;;6.95;;
64197;SDS011;50512;53.666;9.700;2023-06-22T01:12:45;10.65;;;7.30;;
64197;SDS011;50512;53.666;9.700;2023-06-22T01:15:18;10.90;;;7.22;;
64197;SDS011;50512;53.666;9.700;2023-06-22T01:17:49;13.05;;;7.07;;
64197;SDS011;50512;53.666;9.700;2023-06-22T01:20:19;10.05;;;6.38;;
64197;SDS011;50512;53.666;9.700;2023-06-22T01:22:50;11.13;;;6.95;;
64197;SDS011;50512;53.666;9.700;2023-06-22T01:25:28;8.48;;;6.40;;
64197;SDS011;50512;53.666;9.700;2023-06-22T01:28:03;9.20;;;5.97;;
64197;SDS011;50512;53.666;9.700;2023-06-22T01:30:41;10.70;;;6.20;;
64197;SDS011;50512;53.666;9.700;2023-06-22T01:33:11;10.43;;;6.70;;
64197;SDS011;50512;53.666;9.700;2023-06-22T01:35:39;11.77;;;7.70;;
64197;SDS011;50512;53.666;9.700;2023-06-22T01:38:06;9.27;;;6.45;;
64197;SDS011;50512;53.666;9.700;2023-06-22T01:40:34;11.30;;;7.10;;
64197;SDS011;50512;53.666;9.700;2023-06-22T01:43:02;10.77;;;6.05;;
64197;SDS011;50512;53.666;9.700;2023-06-22T01:45:30;9.68;;;6.28;;
64197;SDS011;50512;53.666;9.700;2023-06-22T01:47:57;10.90;;;6.32;;
64197;SDS011;50512;53.666;9.700;2023-06-22T01:50:24;11.32;;;6.53;;
64197;SDS011;50512;53.666;9.700;2023-06-22T01:52:51;8.65;;;6.00;;
64197;SDS011;50512;53.666;9.700;2023-06-22T01:55:17;10.13;;;6.32;;
64197;SDS011;50512;53.666;9.700;2023-06-22T01:57:44;10.60;;;6.53;;
64197;SDS011;50512;53.666;9.700;2023-06-22T02:00:11;10.25;;;6.40;;
64197;SDS011;50512;53.666;9.700;2023-06-22T02:02:45;12.13;;;6.88;;
64197;SDS011;50512;53.666;9.700;2023-06-22T02:05:19;11.85;;;6.88;;
64197;SDS011;50512;53.666;9.700;2023-06-22T02:07:49;9.45;;;6.50;;
64197;SDS011;50512;53.666;9.700;2023-06-22T02:10:22;10.10;;;6.65;;
64197;SDS011;50512;53.666;9.700;2023-06-22T02:12:50;11.07;;;6.10;;
64197;SDS011;50512;53.666;9.700;2023-06-22T02:15:18;10.40;;;7.43;;
64197;SDS011;50512;53.666;9.700;2023-06-22T02:17:45;12.30;;;7.85;;
64197;SDS011;50512;53.666;9.700;2023-06-22T02:20:12;10.35;;;7.25;;
64197;SDS011;50512;53.666;9.700;2023-06-22T02:22:40;12.02;;;7.88;;
64197;SDS011;50512;53.666;9.700;2023-06-22T02:25:07;13.13;;;8.35;;
64197;SDS011;50512;53.666;9.700;2023-06-22T02:27:34;12.25;;;7.85;;
64197;SDS011;50512;53.666;9.700;2023-06-22T02:30:00;13.18;;;8.80;;
64197;SDS011;50512;53.666;9.700;2023-06-22T02:32:26;14.00;;;9.02;;
64197;SDS011;50512;53.666;9.700;2023-06-22T02:34:53;13.02;;;8.80;;
64197;SDS011;50512;53.666;9.700;2023-06-22T02:37:19;11.52;;;8.23;;
64197;SDS011;50512;53.666;9.700;2023-06-22T02:39:51;13.63;;;9.32;;
64197;SDS011;50512;53.666;9.700;2023-06-22T02:42:18;11.50;;;8.60;;
64197;SDS011;50512;53.666;9.700;2023-06-22T02:44:46;12.60;;;8.50;;
64197;SDS011;50512;53.666;9.700;2023-06-22T02:47:12;11.07;;;8.13;;
64197;SDS011;50512;53.666;9.700;2023-06-22T02:49:39;12.73;;;7.80;;
64197;SDS011;50512;53.666;9.700;2023-06-22T02:52:06;10.68;;;7.25;;
64197;SDS011;50512;53.666;9.700;2023-06-22T02:54:32;9.60;;;6.65;;
64197;SDS011;50512;53.666;9.700;2023-06-22T02:57:00;9.18;;;6.45;;
64197;SDS011;50512;53.666;9.700;2023-06-22T02:59:28;13.35;;;8.98;;
64197;SDS011;50512;53.666;9.700;2023-06-22T03:01:54;14.90;;;8.90;;
64197;SDS011;50512;53.666;9.700;2023-06-22T03:04:20;13.13;;;8.90;;
64197;SDS011;50512;53.666;9.700;2023-06-22T03:06:47;11.50;;;8.32;;
64197;SDS011;50512;53.666;9.700;2023-06-22T03:09:15;12.63;;;8.68;;
64197;SDS011;50512;53.666;9.700;2023-06-22T03:11:42;13.20;;;9.93;;
64197;SDS011;50512;53.666;9.700;2023-06-22T03:14:10;12.60;;;8.80;;
64197;SDS011;50512;53.666;9.700;2023-06-22T03:16:37;12.85;;;9.30;;
64197;SDS011;50512;53.666;9.700;2023-06-22T03:19:03;15.88;;;10.02;;
64197;SDS011;50512;53.666;9.700;2023-06-22T03:21:29;16.30;;;11.13;;
64197;SDS011;50512;53.666;9.700;2023-06-22T03:23:57;13.50;;;9.10;;
64197;SDS011;50512;53.666;9.700;2023-06-22T03:26:23;15.38;;;10.35;;
64197;SDS011;50512;53.666;9.700;2023-06-22T03:28:51;16.60;;;10.45;;
64197;SDS011;50512;53.666;9.700;2023-06-22T03:31:19;16.35;;;10.35;;
64197;SDS011;50512;53.666;9.700;2023-06-22T03:33:46;15.43;;;10.52;;
64197;SDS011;50512;53.666;9.700;2023-06-22T03:36:12;14.95;;;9.73;;
64197;SDS011;50512;53.666;9.700;2023-06-22T03:38:39;12.98;;;9.43;;
64197;SDS011;50512;53.666;9.700;2023-06-22T03:41:05;12.57;;;9.57;;
64197;SDS011;50512;53.666;9.700;2023-06-22T03:43:32;14.43;;;9.98;;
64197;SDS011;50512;53.666;9.700;2023-06-22T03:45:58;14.77;;;10.15;;
64197;SDS011;50512;53.666;9.700;2023-06-22T03:48:26;15.82;;;9.85;;
64197;SDS011;50512;53.666;9.700;2023-06-22T03:50:53;16.58;;;11.45;;
64197;SDS011;50512;53.666;9.700;2023-06-22T03:53:19;17.58;;;11.25;;
64197;SDS011;50512;53.666;9.700;2023-06-22T03:55:49;15.75;;;10.40;;
64197;SDS011;50512;53.666;9.700;2023-06-22T03:58:17;16.13;;;9.57;;
64197;SDS011;50512;53.666;9.700;2023-06-22T04:00:44;16.42;;;10.43;;
64197;SDS011;50512;53.666;9.700;2023-06-22T04:03:11;16.33;;;11.13;;
64197;SDS011;50512;53.666;9.700;2023-06-22T04:05:39;16.17;;;11.43;;
64197;SDS011;50512;53.666;9.700;2023-06-22T04:08:05;16.70;;;11.27;;
64197;SDS011;50512;53.666;9.700;2023-06-22T04:10:32;14.05;;;10.90;;
64197;SDS011;50512;53.666;9.700;2023-06-22T04:12:59;17.17;;;11.10;;
64197;SDS011;50512;53.666;9.700;2023-06-22T04:15:26;16.65;;;11.52;;
64197;SDS011;50512;53.666;9.700;2023-06-22T04:17:54;16.67;;;10.98;;
64197;SDS011;50512;53.666;9.700;2023-06-22T04:20:21;16.83;;;11.70;;
64197;SDS011;50512;53.666;9.700;2023-06-22T04:22:48;17.73;;;12.07;;
64197;SDS011;50512;53.666;9.700;2023-06-22T04:25:15;19.83;;;11.82;;
64197;SDS011;50512;53.666;9.700;2023-06-22T04:27:41;18.25;;;11.60;;
64197;SDS011;50512;53.666;9.700;2023-06-22T04:30:08;20.23;;;12.98;;
64197;SDS011;50512;53.666;9.700;2023-06-22T04:32:35;21.48;;;14.02;;
64197;SDS011;50512;53.666;9.700;2023-06-22T04:35:02;19.50;;;12.27;;
64197;SDS011;50512;53.666;9.700;2023-06-22T04:37:29;15.07;;;11.00;;
64197;SDS011;50512;53.666;9.700;2023-06-22T04:39:57;18.25;;;11.85;;
64197;SDS011;50512;53.666;9.700;2023-06-22T04:42:25;20.52;;;12.73;;
64197;SDS011;50512;53.666;9.700;2023-06-22T04:44:52;17.75;;;12.95;;
64197;SDS011;50512;53.666;9.700;2023-06-22T04:47:19;21.73;;;14.40;;
64197;SDS011;50512;53.666;9.700;2023-06-22T04:49:45;22.77;;;15.38;;
64197;SDS011;50512;53.666;9.700;2023-06-22T04:52:12;25.33;;;16.52;;
64197;SDS011;50512;53.666;9.700;2023-06-22T04:54:45;27.25;;;16.33;;
64197;SDS011;50512;53.666;9.700;2023-06-22T04:57:15;24.10;;;16.98;;
64197;SDS011;50512;53.666;9.700;2023-06-22T04:59:42;25.15;;;16.77;;
64197;SDS011;50512;53.666;9.700;2023-06-22T05:02:09;23.63;;;16.35;;
64197;SDS011;50512;53.666;9.700;2023-06-22T05:04:36;22.77;;;16.27;;
64197;SDS011;50512;53.666;9.700;2023-06-22T05:07:03;21.75;;;15.30;;
64197;SDS011;50512;53.666;9.700;2023-06-22T05:09:30;25.13;;;16.60;;
64197;SDS011;50512;53.666;9.700;2023-06-22T05:11:58;25.02;;;16.08;;
64197;SDS011;50512;53.666;9.700;2023-06-22T05:14:28;27.58;;;16.33;;
64197;SDS011;50512;53.666;9.700;2023-06-22T05:16:54;27.00;;;16.35;;
64197;SDS011;50512;53.666;9.700;2023-06-22T05:19:23;24.92;;;15.82;;
64197;SDS011;50512;53.666;9.700;2023-06-22T05:21:50;28.02;;;15.70;;
64197;SDS011;50512;53.666;9.700;2023-06-22T05:24:16;24.40;;;15.43;;
64197;SDS011;50512;53.666;9.700;2023-06-22T05:26:43;21.65;;;15.30;;
64197;SDS011;50512;53.666;9.700;2023-06-22T05:29:09;24.05;;;15.10;;
64197;SDS011;50512;53.666;9.700;2023-06-22T05:31:37;23.20;;;15.50;;
64197;SDS011;50512;53.666;9.700;2023-06-22T05:34:05;24.00;;;14.57;;
64197;SDS011;50512;53.666;9.700;2023-06-22T05:36:31;39.67;;;22.02;;
64197;SDS011;50512;53.666;9.700;2023-06-22T05:38:58;28.58;;;17.35;;
64197;SDS011;50512;53.666;9.700;2023-06-22T05:41:24;20.02;;;13.88;;
64197;SDS011;50512;53.666;9.700;2023-06-22T05:43:50;21.70;;;13.00;;
64197;SDS011;50512;53.666;9.700;2023-06-22T05:46:19;20.08;;;13.15;;
64197;SDS011;50512;53.666;9.700;2023-06-22T05:48:47;18.35;;;12.60;;
64197;SDS011;50512;53.666;9.700;2023-06-22T05:51:13;17.77;;;12.50;;
64197;SDS011;50512;53.666;9.700;2023-06-22T05:53:40;17.10;;;12.45;;
64197;SDS011;50512;53.666;9.700;2023-06-22T05:56:06;16.88;;;10.77;;
64197;SDS011;50512;53.666;9.700;2023-06-22T05:58:32;13.68;;;9.93;;
64197;SDS011;50512;53.666;9.700;2023-06-22T06:00:59;15.57;;;10.85;;
64197;SDS011;50512;53.666;9.700;2023-06-22T06:03:25;15.82;;;10.85;;
64197;SDS011;50512;53.666;9.700;2023-06-22T06:05:55;20.40;;;10.98;;
64197;SDS011;50512;53.666;9.700;2023-06-22T06:08:21;17.30;;;10.00;;
64197;SDS011;50512;53.666;9.700;2023-06-22T06:10:48;16.35;;;10.98;;
64197;SDS011;50512;53.666;9.700;2023-06-22T06:13:14;16.95;;;9.13;;
64197;SDS011;50512;53.666;9.700;2023-06-22T06:15:41;16.05;;;8.80;;
64197;SDS011;50512;53.666;9.700;2023-06-22T06:18:07;15.73;;;8.10;;
64197;SDS011;50512;53.666;9.700;2023-06-22T06:20:34;12.90;;;8.57;;
64197;SDS011;50512;53.666;9.700;2023-06-22T06:23:02;17.73;;;8.13;;
64197;SDS011;50512;53.666;9.700;2023-06-22T06:25:28;14.32;;;7.35;;
64197;SDS011;50512;53.666;9.700;2023-06-22T06:27:55;14.32;;;8.80;;
64197;SDS011;50512;53.666;9.700;2023-06-22T06:30:21;17.55;;;8.60;;
64197;SDS011;50512;53.666;9.700;2023-06-22T06:32:49;11.30;;;8.00;;
64197;SDS011;50512;53.666;9.700;2023-06-22T06:35:16;13.38;;;8.43;;
64197;SDS011;50512;53.666;9.700;2023-06-22T06:37:43;12.32;;;8.32;;
64197;SDS011;50512;53.666;9.700;2023-06-22T06:40:13;15.05;;;8.35;;
64197;SDS011;50512;53.666;9.700;2023-06-22T06:42:41;12.02;;;7.25;;
64197;SDS011;50512;53.666;9.700;2023-06-22T06:45:10;12.68;;;7.28;;
64197;SDS011;50512;53.666;9.700;2023-06-22T06:47:37;10.65;;;6.60;;
64197;SDS011;50512;53.666;9.700;2023-06-22T06:50:04;10.88;;;6.20;;
64197;SDS011;50512;53.666;9.700;2023-06-22T06:52:31;9.00;;;6.00;;
64197;SDS011;50512;53.666;9.700;2023-06-22T06:54:58;9.55;;;5.82;;
64197;SDS011;50512;53.666;9.700;2023-06-22T06:57:26;10.38;;;5.82;;
64197;SDS011;50512;53.666;9.700;2023-06-22T06:59:54;8.55;;;5.32;;
64197;SDS011;50512;53.666;9.700;2023-06-22T07:02:20;9.68;;;5.05;;
64197;SDS011;50512;53.666;9.700;2023-06-22T07:04:47;9.25;;;4.80;;
64197;SDS011;50512;53.666;9.700;2023-06-22T07:07:13;9.15;;;4.97;;
64197;SDS011;50512;53.666;9.700;2023-06-22T07:09:40;9.57;;;4.72;;
64197;SDS011;50512;53.666;9.700;2023-06-22T07:12:07;9.13;;;5.45;;
64197;SDS011;50512;53.666;9.700;2023-06-22T07:14:35;8.77;;;4.82;;
64197;SDS011;50512;53.666;9.700;2023-06-22T07:17:02;10.82;;;4.93;;
64197;SDS011;50512;53.666;9.700;2023-06-22T07:19:28;7.80;;;4.47;;
64197;SDS011;50512;53.666;9.700;2023-06-22T07:21:56;11.05;;;5.45;;
64197;SDS011;50512;53.666;9.700;2023-06-22T07:24:23;8.10;;;4.65;;
64197;SDS011;50512;53.666;9.700;2023-06-22T07:26:50;9.13;;;5.13;;
64197;SDS011;50512;53.666;9.700;2023-06-22T07:29:17;8.45;;;5.03;;
64197;SDS011;50512;53.666;9.700;2023-06-22T07:31:46;7.35;;;4.50;;
64197;SDS011;50512;53.666;9.700;2023-06-22T07:34:14;8.93;;;5.05;;
64197;SDS011;50512;53.666;9.700;2023-06-22T07:36:41;7.82;;;4.82;;
64197;SDS011;50512;53.666;9.700;2023-06-22T07:39:07;9.20;;;4.70;;
64197;SDS011;50512;53.666;9.700;2023-06-22T07:41:34;7.70;;;4.30;;
64197;SDS011;50512;53.666;9.700;2023-06-22T07:44:01;6.03;;;4.20;;
64197;SDS011;50512;53.666;9.700;2023-06-22T07:46:28;9.00;;;5.05;;
64197;SDS011;50512;53.666;9.700;2023-06-22T07:48:56;6.07;;;4.22;;
64197;SDS011;50512;53.666;9.700;2023-06-22T07:51:24;8.05;;;5.07;;
64197;SDS011;50512;53.666;9.700;2023-06-22T07:53:51;7.75;;;4.78;;
64197;SDS011;50512;53.666;9.700;2023-06-22T07:56:17;8.63;;;4.10;;
64197;SDS011;50512;53.666;9.700;2023-06-22T07:58:45;8.07;;;5.03;;
64197;SDS011;50512;53.666;9.700;2023-06-22T08:01:11;9.32;;;5.15;;
64197;SDS011;50512;53.666;9.700;2023-06-22T08:03:38;7.72;;;4.95;;
64197;SDS011;50512;53.666;9.700;2023-06-22T08:06:06;8.07;;;4.60;;
64197;SDS011;50512;53.666;9.700;2023-06-22T08:08:34;9.85;;;4.70;;
64197;SDS011;50512;53.666;9.700;2023-06-22T08:11:00;7.22;;;4.72;;
64197;SDS011;50512;53.666;9.700;2023-06-22T08:13:27;7.75;;;4.30;;
64197;SDS011;50512;53.666;9.700;2023-06-22T08:15:54;7.35;;;4.78;;
64197;SDS011;50512;53.666;9.700;2023-06-22T08:18:20;7.97;;;4.75;;
64197;SDS011;50512;53.666;9.700;2023-06-22T08:20:47;7.90;;;5.15;;
64197;SDS011;50512;53.666;9.700;2023-06-22T08:23:15;7.18;;;4.82;;
64197;SDS011;50512;53.666;9.700;2023-06-22T08:25:42;7.80;;;4.88;;
64197;SDS011;50512;53.666;9.700;2023-06-22T08:28:08;9.80;;;4.25;;
64197;SDS011;50512;53.666;9.700;2023-06-22T08:30:35;6.10;;;4.00;;
64197;SDS011;50512;53.666;9.700;2023-06-22T08:33:01;7.10;;;4.32;;
64197;SDS011;50512;53.666;9.700;2023-06-22T08:35:28;6.72;;;3.95;;
64197;SDS011;50512;53.666;9.700;2023-06-22T08:37:55;7.07;;;3.72;;
64197;SDS011;50512;53.666;9.700;2023-06-22T08:40:23;7.72;;;3.70;;
64197;SDS011;50512;53.666;9.700;2023-06-22T08:42:49;6.22;;;3.75;;
64197;SDS011;50512;53.666;9.700;2023-06-22T08:45:16;9.95;;;4.30;;
64197;SDS011;50512;53.666;9.700;2023-06-22T08:47:42;8.35;;;4.13;;
64197;SDS011;50512;53.666;9.700;2023-06-22T08:50:09;6.55;;;3.45;;
64197;SDS011;50512;53.666;9.700;2023-06-22T08:52:36;5.68;;;3.50;;
64197;SDS011;50512;53.666;9.700;2023-06-22T08:55:06;5.47;;;3.25;;
64197;SDS011;50512;53.666;9.700;2023-06-22T08:57:35;6.80;;;3.35;;
64197;SDS011;50512;53.666;9.700;2023-06-22T09:00:03;6.70;;;3.47;;
64197;SDS011;50512;53.666;9.700;2023-06-22T09:02:36;8.40;;;3.53;;
64197;SDS011;50512;53.666;9.700;2023-06-22T09:05:03;4.57;;;2.92;;
64197;SDS011;50512;53.666;9.700;2023-06-22T09:07:30;4.88;;;2.55;;
64197;SDS011;50512;53.666;9.700;2023-06-22T09:09:57;5.47;;;3.20;;
64197;SDS011;50512;53.666;9.700;2023-06-22T09:12:23;4.78;;;2.90;;
64197;SDS011;50512;53.666;9.700;2023-06-22T09:14:53;5.07;;;2.45;;
64197;SDS011;50512;53.666;9.700;2023-06-22T09:17:20;6.85;;;2.63;;
64197;SDS011;50512;53.666;9.700;2023-06-22T09:19:48;4.75;;;2.78;;
64197;SDS011;50512;53.666;9.700;2023-06-22T09:22:14;4.72;;;2.50;;
64197;SDS011;50512;53.666;9.700;2023-06-22T09:24:41;5.68;;;2.90;;
64197;SDS011;50512;53.666;9.700;2023-06-22T09:27:08;4.00;;;2.28;;
64197;SDS011;50512;53.666;9.700;2023-06-22T09:29:34;5.90;;;2.72;;
64197;SDS011;50512;53.666;9.700;2023-06-22T09:32:02;4.80;;;2.78;;
64197;SDS011;50512;53.666;9.700;2023-06-22T09:34:29;4.43;;;2.67;;
64197;SDS011;50512;53.666;9.700;2023-06-22T09:36:56;3.92;;;2.50;;
64197;SDS011;50512;53.666;9.700;2023-06-22T09:39:25;5.40;;;2.83;;
64197;SDS011;50512;53.666;9.700;2023-06-22T09:41:51;5.45;;;2.75;;
64197;SDS011;50512;53.666;9.700;2023-06-22T09:44:18;6.35;;;3.10;;
64197;SDS011;50512;53.666;9.700;2023-06-22T09:46:44;5.43;;;3.20;;
64197;SDS011;50512;53.666;9.700;2023-06-22T09:49:12;4.88;;;3.00;;
64197;SDS011;50512;53.666;9.700;2023-06-22T09:51:39;4.32;;;2.90;;
64197;SDS011;50512;53.666;9.700;2023-06-22T09:54:05;5.07;;;3.30;;
64197;SDS011;50512;53.666;9.700;2023-06-22T09:56:31;3.80;;;2.60;;
64197;SDS011;50512;53.666;9.700;2023-06-22T09:58:58;5.05;;;2.95;;
64197;SDS011;50512;53.666;9.700;2023-06-22T10:01:24;6.63;;;2.95;;
64197;SDS011;50512;53.666;9.700;2023-06-22T10:03:52;6.07;;;3.17;;
64197;SDS011;50512;53.666;9.700;2023-06-22T10:06:22;5.88;;;2.90;;
64197;SDS011;50512;53.666;9.700;2023-06-22T10:08:50;6.15;;;3.55;;
64197;SDS011;50512;53.666;9.700;2023-06-22T10:11:16;8.48;;;3.92;;
64197;SDS011;50512;53.666;9.700;2023-06-22T10:13:43;4.85;;;3.00;;
64197;SDS011;50512;53.666;9.700;2023-06-22T10:16:09;7.60;;;3.53;;
64197;SDS011;50512;53.666;9.700;2023-06-22T10:18:36;7.45;;;4.13;;
64197;SDS011;50512;53.666;9.700;2023-06-22T10:21:02;6.45;;;3.58;;
64197;SDS011;50512;53.666;9.700;2023-06-22T10:23:30;6.18;;;3.65;;
64197;SDS011;50512;53.666;9.700;2023-06-22T10:25:57;6.55;;;4.30;;
64197;SDS011;50512;53.666;9.700;2023-06-22T10:28:23;7.28;;;3.75;;
64197;SDS011;50512;53.666;9.700;2023-06-22T10:30:50;6.50;;;3.63;;
64197;SDS011;50512;53.666;9.700;2023-06-22T10:33:16;9.93;;;4.20;;
64197;SDS011;50512;53.666;9.700;2023-06-22T10:35:43;4.45;;;3.10;;
64197;SDS011;50512;53.666;9.700;2023-06-22T10:38:09;7.65;;;3.92;;
64197;SDS011;50512;53.666;9.700;2023-06-22T10:40:37;6.70;;;4.15;;
64197;SDS011;50512;53.666;9.700;2023-06-22T10:43:04;6.30;;;4.25;;
64197;SDS011;50512;53.666;9.700;2023-06-22T10:45:31;7.57;;;4.10;;
64197;SDS011;50512;53.666;9.700;2023-06-22T10:47:57;8.18;;;4.30;;
64197;SDS011;50512;53.666;9.700;2023-06-22T10:50:24;5.55;;;3.80;;
64197;SDS011;50512;53.666;9.700;2023-06-22T10:52:50;5.07;;;3.08;;
64197;SDS011;50512;53.666;9.700;2023-06-22T10:55:17;6.15;;;3.70;;
64197;SDS011;50512;53.666;9.700;2023-06-22T10:57:45;8.25;;;3.75;;
64197;SDS011;50512;53.666;9.700;2023-06-22T11:00:13;6.00;;;3.53;;
64197;SDS011;50512;53.666;9.700;2023-06-22T11:02:40;6.13;;;3.67;;
64197;SDS011;50512;53.666;9.700;2023-06-22T11:05:07;7.38;;;3.60;;
64197;SDS011;50512;53.666;9.700;2023-06-22T11:07:34;6.03;;;3.80;;
64197;SDS011;50512;53.666;9.700;2023-06-22T11:10:00;5.97;;;3.42;;
64197;SDS011;50512;53.666;9.700;2023-06-22T11:12:27;8.93;;;3.53;;
64197;SDS011;50512;53.666;9.700;2023-06-22T11:14:54;4.63;;;3.30;;
64197;SDS011;50512;53.666;9.700;2023-06-22T11:17:22;5.28;;;3.33;;
64197;SDS011;50512;53.666;9.700;2023-06-22T11:19:48;6.28;;;3.60;;
64197;SDS011;50512;53.666;9.700;2023-06-22T11:22:15;7.57;;;4.47;;
64197;SDS011;50512;53.666;9.700;2023-06-22T11:24:41;6.40;;;3.50;;
64197;SDS011;50512;53.666;9.700;2023-06-22T11:27:08;7.18;;;3.70;;
64197;SDS011;50512;53.666;9.700;2023-06-22T11:29:34;7.03;;;4.43;;
64197;SDS011;50512;53.666;9.700;2023-06-22T11:32:02;7.20;;;3.72;;
64197;SDS011;50512;53.666;9.700;2023-06-22T11:34:29;7.10;;;4.60;;
64197;SDS011;50512;53.666;9.700;2023-06-22T11:36:55;7.93;;;4.68;;
64197;SDS011;50512;53.666;9.700;2023-06-22T11:39:22;7.25;;;4.45;;
64197;SDS011;50512;53.666;9.700;2023-06-22T11:41:48;6.82;;;4.57;;
64197;SDS011;50512;53.666;9.700;2023-06-22T11:44:14;7.28;;;3.80;;
64197;SDS011;50512;53.666;9.700;2023-06-22T11:46:41;8.23;;;3.95;;
64197;SDS011;50512;53.666;9.700;2023-06-22T11:49:09;6.65;;;4.50;;
64197;SDS011;50512;53.666;9.700;2023-06-22T11:51:35;8.65;;;4.70;;
64197;SDS011;50512;53.666;9.700;2023-06-22T11:54:02;6.28;;;3.85;;
64197;SDS011;50512;53.666;9.700;2023-06-22T11:56:28;5.95;;;4.10;;
64197;SDS011;50512;53.666;9.700;2023-06-22T11:58:55;8.30;;;4.75;;
64197;SDS011;50512;53.666;9.700;2023-06-22T12:01:21;8.82;;;4.15;;
64197;SDS011;50512;53.666;9.700;2023-06-22T12:03:47;7.60;;;4.10;;
64197;SDS011;50512;53.666;9.700;2023-06-22T12:06:15;7.05;;;4.43;;
64197;SDS011;50512;53.666;9.700;2023-06-22T12:08:42;9.32;;;4.68;;
64197;SDS011;50512;53.666;9.700;2023-06-22T12:11:08;6.82;;;4.07;;
64197;SDS011;50512;53.666;9.700;2023-06-22T12:13:35;7.22;;;4.13;;
64197;SDS011;50512;53.666;9.700;2023-06-22T12:16:01;7.72;;;4.13;;
64197;SDS011;50512;53.666;9.700;2023-06-22T12:18:28;8.05;;;4.60;;
64197;SDS011;50512;53.666;9.700;2023-06-22T12:20:54;6.63;;;4.60;;
64197;SDS011;50512;53.666;9.700;2023-06-22T12:23:22;6.38;;;4.55;;
64197;SDS011;50512;53.666;9.700;2023-06-22T12:25:48;9.15;;;5.82;;
64197;SDS011;50512;53.666;9.700;2023-06-22T12:28:15;6.88;;;4.93;;
64197;SDS011;50512;53.666;9.700;2023-06-22T12:30:41;8.52;;;4.80;;
64197;SDS011;50512;53.666;9.700;2023-06-22T12:33:11;6.72;;;4.30;;
64197;SDS011;50512;53.666;9.700;2023-06-22T12:35:37;8.68;;;4.95;;
64197;SDS011;50512;53.666;9.700;2023-06-22T12:38:06;6.85;;;4.80;;
64197;SDS011;50512;53.666;9.700;2023-06-22T12:40:35;6.97;;;4.97;;
64197;SDS011;50512;53.666;9.700;2023-06-22T12:43:02;10.63;;;4.93;;
64197;SDS011;50512;53.666;9.700;2023-06-22T12:45:28;9.82;;;5.43;;
64197;SDS011;50512;53.666;9.700;2023-06-22T12:47:58;7.30;;;4.40;;
64197;SDS011;50512;53.666;9.700;2023-06-22T12:50:24;8.25;;;5.18;;
64197;SDS011;50512;53.666;9.700;2023-06-22T12:52:51;5.40;;;4.38;;
64197;SDS011;50512;53.666;9.700;2023-06-22T12:55:17;8.00;;;4.90;;
64197;SDS011;50512;53.666;9.700;2023-06-22T12:57:45;7.13;;;4.80;;
64197;SDS011;50512;53.666;9.700;2023-06-22T13:00:12;8.98;;;5.55;;
64197;SDS011;50512;53.666;9.700;2023-06-22T13:02:39;7.68;;;4.95;;
64197;SDS011;50512;53.666;9.700;2023-06-22T13:05:06;6.63;;;5.13;;
64197;SDS011;50512;53.666;9.700;2023-06-22T13:07:34;8.05;;;5.00;;
64197;SDS011;50512;53.666;9.700;2023-06-22T13:10:04;7.00;;;5.00;;
64197;SDS011;50512;53.666;9.700;2023-06-22T13:12:31;7.80;;;4.70;;
64197;SDS011;50512;53.666;9.700;2023-06-22T13:14:59;7.70;;;5.00;;
64197;SDS011;50512;53.666;9.700;2023-06-22T13:17:27;7.82;;;5.40;;
64197;SDS011;50512;53.666;9.700;2023-06-22T13:19:56;7.00;;;4.55;;
64197;SDS011;50512;53.666;9.700;2023-06-22T13:22:28;7.20;;;4.97;;
64197;SDS011;50512;53.666;9.700;2023-06-22T13:24:56;7.45;;;4.85;;
64197;SDS011;50512;53.666;9.700;2023-06-22T13:27:22;7.30;;;5.22;;
64197;SDS011;50512;53.666;9.700;2023-06-22T13:29:52;6.75;;;4.80;;
64197;SDS011;50512;53.666;9.700;2023-06-22T13:32:24;8.68;;;5.22;;
64197;SDS011;50512;53.666;9.700;2023-06-22T13:34:51;11.63;;;5.40;;
64197;SDS011;50512;53.666;9.700;2023-06-22T13:37:19;7.82;;;5.45;;
64197;SDS011;50512;53.666;9.700;2023-06-22T13:39:46;10.10;;;5.63;;
64197;SDS011;50512;53.666;9.700;2023-06-22T13:42:13;8.13;;;5.13;;
64197;SDS011;50512;53.666;9.700;2023-06-22T13:44:44;8.25;;;4.95;;
64197;SDS011;50512;53.666;9.700;2023-06-22T13:47:11;7.35;;;5.03;;
64197;SDS011;50512;53.666;9.700;2023-06-22T13:49:39;6.82;;;5.10;;
64197;SDS011;50512;53.666;9.700;2023-06-22T13:52:07;6.72;;;5.03;;
64197;SDS011;50512;53.666;9.700;2023-06-22T13:54:40;6.75;;;5.30;;
64197;SDS011;50512;53.666;9.700;2023-06-22T13:57:07;7.10;;;5.18;;
64197;SDS011;50512;53.666;9.700;2023-06-22T13:59:35;9.10;;;5.22;;
64197;SDS011;50512;53.666;9.700;2023-06-22T14:02:03;7.35;;;5.13;;
64197;SDS011;50512;53.666;9.700;2023-06-22T14:04:32;7.65;;;4.82;;
64197;SDS011;50512;53.666;9.700;2023-06-22T14:07:04;8.13;;;5.65;;
64197;SDS011;50512;53.666;9.700;2023-06-22T14:09:37;7.95;;;5.30;;
64197;SDS011;50512;53.666;9.700;2023-06-22T14:12:12;7.47;;;4.88;;
64197;SDS011;50512;53.666;9.700;2023-06-22T14:14:40;7.55;;;4.88;;
64197;SDS011;50512;53.666;9.700;2023-06-22T14:17:06;7.60;;;4.80;;
64197;SDS011;50512;53.666;9.700;2023-06-22T14:19:36;5.85;;;4.70;;
64197;SDS011;50512;53.666;9.700;2023-06-22T14:22:09;7.45;;;5.35;;
64197;SDS011;50512;53.666;9.700;2023-06-22T14:24:36;7.25;;;4.82;;
64197;SDS011;50512;53.666;9.700;2023-06-22T14:27:04;7.15;;;5.05;;
64197;SDS011;50512;53.666;9.700;2023-06-22T14:29:33;7.47;;;4.82;;
64197;SDS011;50512;53.666;9.700;2023-06-22T14:32:00;7.72;;;5.20;;
64197;SDS011;50512;53.666;9.700;2023-06-22T14:34:26;9.77;;;5.53;;
64197;SDS011;50512;53.666;9.700;2023-06-22T14:36:52;7.45;;;5.30;;
64197;SDS011;50512;53.666;9.700;2023-06-22T14:39:20;8.48;;;5.70;;
64197;SDS011;50512;53.666;9.700;2023-06-22T14:41:47;6.85;;;5.30;;